sensor_id;sensor_type;location;lat;lon;timestamp;temperature;humidity
484;DHT22;228;48.922;12.198;2023-03-01T00:01:34;4.50;55.30
484;DHT22;228;48.922;12.198;2023-03-01T00:04:00;4.40;55.20
484;DHT22;228;48.922;12.198;2023-03-01T00:06:27;4.10;55.70
484;DHT22;228;48.922;12.198;2023-03-01T00:08:53;3.90;56.10
484;DHT22;228;48.922;12.198;2023-03-01T00:11:22;3.80;57.20
484;DHT22;228;48.922;12.198;2023-03-01T00:13:51;3.60;57.20
484;DHT22;228;48.922;12.198;2023-03-01T00:16:28;3.50;57.70
484;DHT22;228;48.922;12.198;2023-03-01T00:18:57;3.60;57.70
484;DHT22;228;48.922;12.198;2023-03-01T00:21:24;3.30;57.60
484;DHT22;228;48.922;12.198;2023-03-01T00:23:52;3.10;58.40
484;DHT22;228;48.922;12.198;2023-03-01T00:26:20;3.00;58.60
484;DHT22;228;48.922;12.198;2023-03-01T00:28:47;3.00;59.10
484;DHT22;228;48.922;12.198;2023-03-01T00:31:20;3.00;58.80
484;DHT22;228;48.922;12.198;2023-03-01T00:33:50;3.10;58.80
484;DHT22;228;48.922;12.198;2023-03-01T00:36:18;3.00;59.00
484;DHT22;228;48.922;12.198;2023-03-01T00:38:45;3.00;59.00
484;DHT22;228;48.922;12.198;2023-03-01T00:41:13;2.80;59.20
484;DHT22;228;48.922;12.198;2023-03-01T00:43:41;2.80;59.80
484;DHT22;228;48.922;12.198;2023-03-01T00:46:10;2.90;59.90
484;DHT22;228;48.922;12.198;2023-03-01T00:48:37;3.10;59.70
484;DHT22;228;48.922;12.198;2023-03-01T00:51:11;3.30;58.70
484;DHT22;228;48.922;12.198;2023-03-01T00:53:39;3.40;58.20
484;DHT22;228;48.922;12.198;2023-03-01T00:56:08;3.40;58.20
484;DHT22;228;48.922;12.198;2023-03-01T00:58:35;3.40;58.00
484;DHT22;228;48.922;12.198;2023-03-01T01:01:07;3.50;57.80
484;DHT22;228;48.922;12.198;2023-03-01T01:03:57;3.30;58.10
484;DHT22;228;48.922;12.198;2023-03-01T01:06:49;3.30;58.60
484;DHT22;228;48.922;12.198;2023-03-01T01:09:17;3.10;58.50
484;DHT22;228;48.922;12.198;2023-03-01T01:11:48;3.10;58.90
484;DHT22;228;48.922;12.198;2023-03-01T01:14:16;2.90;59.10
484;DHT22;228;48.922;12.198;2023-03-01T01:16:43;2.70;59.70
484;DHT22;228;48.922;12.198;2023-03-01T01:19:10;2.90;59.90
484;DHT22;228;48.922;12.198;2023-03-01T01:21:37;2.80;60.00
484;DHT22;228;48.922;12.198;2023-03-01T01:24:03;2.70;60.30
484;DHT22;228;48.922;12.198;2023-03-01T01:26:33;2.70;61.10
484;DHT22;228;48.922;12.198;2023-03-01T01:29:01;2.70;61.00
484;DHT22;228;48.922;12.198;2023-03-01T01:31:28;2.80;61.00
484;DHT22;228;48.922;12.198;2023-03-01T01:33:56;2.90;60.80
484;DHT22;228;48.922;12.198;2023-03-01T01:36:23;2.90;59.90
484;DHT22;228;48.922;12.198;2023-03-01T01:38:49;2.90;59.80
484;DHT22;228;48.922;12.198;2023-03-01T01:41:16;2.70;60.00
484;DHT22;228;48.922;12.198;2023-03-01T01:43:44;2.60;61.00
484;DHT22;228;48.922;12.198;2023-03-01T01:46:29;2.70;60.50
484;DHT22;228;48.922;12.198;2023-03-01T01:49:07;2.40;61.90
484;DHT22;228;48.922;12.198;2023-03-01T01:51:45;2.50;61.90
484;DHT22;228;48.922;12.198;2023-03-01T01:54:30;2.50;61.50
484;DHT22;228;48.922;12.198;2023-03-01T01:57:02;2.50;61.60
484;DHT22;228;48.922;12.198;2023-03-01T01:59:31;2.50;61.80
484;DHT22;228;48.922;12.198;2023-03-01T02:01:59;2.60;61.30
484;DHT22;228;48.922;12.198;2023-03-01T02:04:26;2.60;60.90
484;DHT22;228;48.922;12.198;2023-03-01T02:07:17;2.70;60.50
484;DHT22;228;48.922;12.198;2023-03-01T02:09:47;2.90;59.90
484;DHT22;228;48.922;12.198;2023-03-01T02:12:17;2.90;59.60
484;DHT22;228;48.922;12.198;2023-03-01T02:14:46;2.70;59.70
484;DHT22;228;48.922;12.198;2023-03-01T02:17:13;2.60;60.20
484;DHT22;228;48.922;12.198;2023-03-01T02:22:30;2.30;61.60
484;DHT22;228;48.922;12.198;2023-03-01T02:25:09;2.20;61.50
484;DHT22;228;48.922;12.198;2023-03-01T02:30:18;2.30;61.40
484;DHT22;228;48.922;12.198;2023-03-01T02:32:45;2.30;61.30
484;DHT22;228;48.922;12.198;2023-03-01T02:35:14;2.40;61.00
484;DHT22;228;48.922;12.198;2023-03-01T02:37:42;2.60;60.20
484;DHT22;228;48.922;12.198;2023-03-01T02:40:12;2.70;59.70
484;DHT22;228;48.922;12.198;2023-03-01T02:42:57;2.80;59.30
484;DHT22;228;48.922;12.198;2023-03-01T02:45:26;2.80;59.00
484;DHT22;228;48.922;12.198;2023-03-01T02:47:56;2.80;59.00
484;DHT22;228;48.922;12.198;2023-03-01T02:56:30;2.60;59.60
484;DHT22;228;48.922;12.198;2023-03-01T02:58:57;2.60;59.50
484;DHT22;228;48.922;12.198;2023-03-01T03:01:27;2.60;59.40
484;DHT22;228;48.922;12.198;2023-03-01T03:04:05;2.60;59.30
484;DHT22;228;48.922;12.198;2023-03-01T03:06:34;2.60;59.60
484;DHT22;228;48.922;12.198;2023-03-01T03:09:00;2.50;59.50
484;DHT22;228;48.922;12.198;2023-03-01T03:11:26;2.50;59.60
484;DHT22;228;48.922;12.198;2023-03-01T03:13:53;2.50;59.80
484;DHT22;228;48.922;12.198;2023-03-01T03:16:20;2.40;59.80
484;DHT22;228;48.922;12.198;2023-03-01T03:18:46;2.40;60.20
484;DHT22;228;48.922;12.198;2023-03-01T03:21:13;2.40;60.20
484;DHT22;228;48.922;12.198;2023-03-01T03:23:39;2.40;60.10
484;DHT22;228;48.922;12.198;2023-03-01T03:26:05;2.30;59.90
484;DHT22;228;48.922;12.198;2023-03-01T03:28:32;2.30;60.20
484;DHT22;228;48.922;12.198;2023-03-01T03:31:00;2.20;60.40
484;DHT22;228;48.922;12.198;2023-03-01T03:33:30;2.20;61.30
484;DHT22;228;48.922;12.198;2023-03-01T03:35:56;2.20;61.50
484;DHT22;228;48.922;12.198;2023-03-01T03:38:22;2.20;60.80
484;DHT22;228;48.922;12.198;2023-03-01T03:41:03;2.20;61.50
484;DHT22;228;48.922;12.198;2023-03-01T03:43:32;2.20;60.80
484;DHT22;228;48.922;12.198;2023-03-01T03:45:58;2.00;60.60
484;DHT22;228;48.922;12.198;2023-03-01T03:48:25;2.10;60.60
484;DHT22;228;48.922;12.198;2023-03-01T03:50:54;2.10;60.60
484;DHT22;228;48.922;12.198;2023-03-01T03:53:23;2.00;60.80
484;DHT22;228;48.922;12.198;2023-03-01T03:55:50;2.00;60.70
484;DHT22;228;48.922;12.198;2023-03-01T03:58:18;2.00;60.80
484;DHT22;228;48.922;12.198;2023-03-01T04:00:48;2.00;60.70
484;DHT22;228;48.922;12.198;2023-03-01T04:03:16;2.00;60.50
484;DHT22;228;48.922;12.198;2023-03-01T04:05:45;1.90;60.60
484;DHT22;228;48.922;12.198;2023-03-01T04:08:12;1.90;60.70
484;DHT22;228;48.922;12.198;2023-03-01T04:10:41;1.90;60.60
484;DHT22;228;48.922;12.198;2023-03-01T04:13:13;1.80;60.80
484;DHT22;228;48.922;12.198;2023-03-01T04:15:40;1.80;61.10
484;DHT22;228;48.922;12.198;2023-03-01T04:18:10;1.90;61.40
484;DHT22;228;48.922;12.198;2023-03-01T04:20:38;1.90;60.80
484;DHT22;228;48.922;12.198;2023-03-01T04:23:05;1.90;60.40
484;DHT22;228;48.922;12.198;2023-03-01T04:25:40;1.90;60.20
484;DHT22;228;48.922;12.198;2023-03-01T04:28:34;1.80;60.60
484;DHT22;228;48.922;12.198;2023-03-01T04:31:11;1.80;60.60
484;DHT22;228;48.922;12.198;2023-03-01T04:33:44;1.80;60.30
484;DHT22;228;48.922;12.198;2023-03-01T04:36:14;1.80;60.70
484;DHT22;228;48.922;12.198;2023-03-01T04:38:41;1.80;60.30
484;DHT22;228;48.922;12.198;2023-03-01T04:41:10;1.70;60.30
484;DHT22;228;48.922;12.198;2023-03-01T04:43:37;1.60;60.90
484;DHT22;228;48.922;12.198;2023-03-01T04:46:06;1.50;61.30
484;DHT22;228;48.922;12.198;2023-03-01T04:48:38;1.60;61.10
484;DHT22;228;48.922;12.198;2023-03-01T04:51:06;1.60;60.80
484;DHT22;228;48.922;12.198;2023-03-01T04:53:32;1.60;61.10
484;DHT22;228;48.922;12.198;2023-03-01T04:55:59;1.60;61.20
484;DHT22;228;48.922;12.198;2023-03-01T04:58:26;1.70;60.40
484;DHT22;228;48.922;12.198;2023-03-01T05:00:53;1.70;60.50
484;DHT22;228;48.922;12.198;2023-03-01T05:03:20;1.60;61.50
484;DHT22;228;48.922;12.198;2023-03-01T05:05:48;1.50;61.10
484;DHT22;228;48.922;12.198;2023-03-01T05:08:15;1.50;61.50
484;DHT22;228;48.922;12.198;2023-03-01T05:10:52;1.40;61.10
484;DHT22;228;48.922;12.198;2023-03-01T05:13:20;1.40;61.50
484;DHT22;228;48.922;12.198;2023-03-01T05:16:05;1.30;61.80
484;DHT22;228;48.922;12.198;2023-03-01T05:18:36;1.10;62.30
484;DHT22;228;48.922;12.198;2023-03-01T05:21:11;1.20;62.10
484;DHT22;228;48.922;12.198;2023-03-01T05:23:38;1.20;62.00
484;DHT22;228;48.922;12.198;2023-03-01T05:26:05;1.30;61.70
484;DHT22;228;48.922;12.198;2023-03-01T05:28:32;0.70;62.80
484;DHT22;228;48.922;12.198;2023-03-01T05:30:58;0.50;64.30
484;DHT22;228;48.922;12.198;2023-03-01T05:33:25;0.50;65.30
484;DHT22;228;48.922;12.198;2023-03-01T05:35:52;0.80;65.40
484;DHT22;228;48.922;12.198;2023-03-01T05:38:20;0.80;64.00
484;DHT22;228;48.922;12.198;2023-03-01T05:40:47;1.00;63.20
484;DHT22;228;48.922;12.198;2023-03-01T05:43:15;1.20;62.70
484;DHT22;228;48.922;12.198;2023-03-01T05:45:42;1.00;62.40
484;DHT22;228;48.922;12.198;2023-03-01T05:48:10;0.90;63.40
484;DHT22;228;48.922;12.198;2023-03-01T05:50:39;0.80;63.10
484;DHT22;228;48.922;12.198;2023-03-01T05:53:10;0.90;63.10
484;DHT22;228;48.922;12.198;2023-03-01T05:55:38;1.10;63.70
484;DHT22;228;48.922;12.198;2023-03-01T05:58:10;1.20;62.20
484;DHT22;228;48.922;12.198;2023-03-01T06:00:37;1.20;62.10
484;DHT22;228;48.922;12.198;2023-03-01T06:03:05;1.10;61.90
484;DHT22;228;48.922;12.198;2023-03-01T06:05:56;1.30;62.10
484;DHT22;228;48.922;12.198;2023-03-01T06:08:30;1.40;61.30
484;DHT22;228;48.922;12.198;2023-03-01T06:10:59;1.50;61.00
484;DHT22;228;48.922;12.198;2023-03-01T06:13:25;1.50;60.30
484;DHT22;228;48.922;12.198;2023-03-01T06:16:05;1.70;59.80
484;DHT22;228;48.922;12.198;2023-03-01T06:18:32;1.80;59.90
484;DHT22;228;48.922;12.198;2023-03-01T06:20:58;1.90;59.40
484;DHT22;228;48.922;12.198;2023-03-01T06:23:24;2.00;59.10
484;DHT22;228;48.922;12.198;2023-03-01T06:25:50;1.90;59.20
484;DHT22;228;48.922;12.198;2023-03-01T06:28:16;1.70;59.40
484;DHT22;228;48.922;12.198;2023-03-01T06:30:42;1.70;59.90
484;DHT22;228;48.922;12.198;2023-03-01T06:33:08;1.80;59.80
484;DHT22;228;48.922;12.198;2023-03-01T06:35:35;1.60;60.10
484;DHT22;228;48.922;12.198;2023-03-01T06:38:02;1.50;60.70
484;DHT22;228;48.922;12.198;2023-03-01T06:40:29;1.70;60.90
484;DHT22;228;48.922;12.198;2023-03-01T06:42:57;1.90;60.50
484;DHT22;228;48.922;12.198;2023-03-01T06:45:24;2.20;60.00
484;DHT22;228;48.922;12.198;2023-03-01T06:47:50;2.40;59.40
484;DHT22;228;48.922;12.198;2023-03-01T06:50:17;2.50;58.70
484;DHT22;228;48.922;12.198;2023-03-01T06:52:44;2.40;58.60
484;DHT22;228;48.922;12.198;2023-03-01T06:55:11;2.50;58.80
484;DHT22;228;48.922;12.198;2023-03-01T06:57:38;2.50;58.40
484;DHT22;228;48.922;12.198;2023-03-01T07:00:04;2.50;58.40
484;DHT22;228;48.922;12.198;2023-03-01T07:02:31;3.00;58.30
484;DHT22;228;48.922;12.198;2023-03-01T07:04:57;3.20;57.00
484;DHT22;228;48.922;12.198;2023-03-01T07:07:23;3.40;56.50
484;DHT22;228;48.922;12.198;2023-03-01T07:09:49;3.40;56.10
484;DHT22;228;48.922;12.198;2023-03-01T07:12:16;3.60;55.90
484;DHT22;228;48.922;12.198;2023-03-01T07:14:43;3.40;55.30
484;DHT22;228;48.922;12.198;2023-03-01T07:17:09;3.10;56.30
484;DHT22;228;48.922;12.198;2023-03-01T07:19:35;3.10;57.00
484;DHT22;228;48.922;12.198;2023-03-01T07:22:03;3.20;56.60
484;DHT22;228;48.922;12.198;2023-03-01T07:24:29;3.00;57.70
484;DHT22;228;48.922;12.198;2023-03-01T07:26:55;3.10;57.20
484;DHT22;228;48.922;12.198;2023-03-01T07:29:21;3.30;56.90
484;DHT22;228;48.922;12.198;2023-03-01T07:31:47;3.60;56.70
484;DHT22;228;48.922;12.198;2023-03-01T07:34:13;4.00;55.60
484;DHT22;228;48.922;12.198;2023-03-01T07:36:39;3.80;55.80
484;DHT22;228;48.922;12.198;2023-03-01T07:39:10;4.20;55.30
484;DHT22;228;48.922;12.198;2023-03-01T07:41:36;4.70;54.10
484;DHT22;228;48.922;12.198;2023-03-01T07:44:03;4.50;52.70
484;DHT22;228;48.922;12.198;2023-03-01T07:46:29;4.40;53.70
484;DHT22;228;48.922;12.198;2023-03-01T07:48:55;4.40;53.50
484;DHT22;228;48.922;12.198;2023-03-01T07:51:21;4.30;53.60
484;DHT22;228;48.922;12.198;2023-03-01T07:53:51;3.90;54.10
484;DHT22;228;48.922;12.198;2023-03-01T07:56:20;3.80;55.00
484;DHT22;228;48.922;12.198;2023-03-01T07:58:47;4.30;54.70
484;DHT22;228;48.922;12.198;2023-03-01T08:01:16;4.50;53.80
484;DHT22;228;48.922;12.198;2023-03-01T08:03:44;4.50;53.70
484;DHT22;228;48.922;12.198;2023-03-01T08:06:12;4.10;54.20
484;DHT22;228;48.922;12.198;2023-03-01T08:08:39;3.90;54.60
484;DHT22;228;48.922;12.198;2023-03-01T08:11:07;3.60;55.90
484;DHT22;228;48.922;12.198;2023-03-01T08:13:35;3.90;56.50
484;DHT22;228;48.922;12.198;2023-03-01T08:16:07;4.50;55.30
484;DHT22;228;48.922;12.198;2023-03-01T08:18:35;4.90;54.70
484;DHT22;228;48.922;12.198;2023-03-01T08:21:06;4.80;52.60
484;DHT22;228;48.922;12.198;2023-03-01T08:23:37;4.80;53.80
484;DHT22;228;48.922;12.198;2023-03-01T08:26:15;5.00;53.10
484;DHT22;228;48.922;12.198;2023-03-01T08:28:44;4.70;51.80
484;DHT22;228;48.922;12.198;2023-03-01T08:31:16;4.80;53.20
484;DHT22;228;48.922;12.198;2023-03-01T08:33:43;5.20;52.30
484;DHT22;228;48.922;12.198;2023-03-01T08:36:09;5.30;51.90
484;DHT22;228;48.922;12.198;2023-03-01T08:38:35;5.50;50.60
484;DHT22;228;48.922;12.198;2023-03-01T08:41:03;5.90;50.10
484;DHT22;228;48.922;12.198;2023-03-01T08:43:29;5.90;49.30
484;DHT22;228;48.922;12.198;2023-03-01T08:46:00;5.80;49.80
484;DHT22;228;48.922;12.198;2023-03-01T08:48:28;6.10;49.80
484;DHT22;228;48.922;12.198;2023-03-01T08:50:54;6.10;50.20
484;DHT22;228;48.922;12.198;2023-03-01T08:53:21;6.50;49.30
484;DHT22;228;48.922;12.198;2023-03-01T08:55:51;6.50;48.60
484;DHT22;228;48.922;12.198;2023-03-01T08:58:17;6.20;48.50
484;DHT22;228;48.922;12.198;2023-03-01T09:00:43;6.00;48.20
484;DHT22;228;48.922;12.198;2023-03-01T09:03:44;6.10;48.60
484;DHT22;228;48.922;12.198;2023-03-01T09:06:11;6.50;48.70
484;DHT22;228;48.922;12.198;2023-03-01T09:08:46;6.90;47.80
484;DHT22;228;48.922;12.198;2023-03-01T09:11:16;7.40;47.40
484;DHT22;228;48.922;12.198;2023-03-01T09:13:46;7.50;46.40
484;DHT22;228;48.922;12.198;2023-03-01T09:16:15;7.60;46.10
484;DHT22;228;48.922;12.198;2023-03-01T09:18:43;7.40;46.10
484;DHT22;228;48.922;12.198;2023-03-01T09:21:15;7.10;46.70
484;DHT22;228;48.922;12.198;2023-03-01T09:23:47;7.30;46.50
484;DHT22;228;48.922;12.198;2023-03-01T09:26:38;7.30;46.10
484;DHT22;228;48.922;12.198;2023-03-01T09:29:09;7.60;45.10
484;DHT22;228;48.922;12.198;2023-03-01T09:31:58;8.00;44.60
484;DHT22;228;48.922;12.198;2023-03-01T09:37:42;7.60;43.70
484;DHT22;228;48.922;12.198;2023-03-01T09:40:50;7.70;44.80
484;DHT22;228;48.922;12.198;2023-03-01T09:43:43;7.50;44.50
484;DHT22;228;48.922;12.198;2023-03-01T09:46:35;7.70;44.70
484;DHT22;228;48.922;12.198;2023-03-01T09:49:53;7.80;46.30
484;DHT22;228;48.922;12.198;2023-03-01T09:53:11;8.10;44.80
484;DHT22;228;48.922;12.198;2023-03-01T10:11:53;8.70;40.10
484;DHT22;228;48.922;12.198;2023-03-01T10:14:36;8.80;40.60
484;DHT22;228;48.922;12.198;2023-03-01T10:20:25;9.60;40.80
484;DHT22;228;48.922;12.198;2023-03-01T10:24:36;9.90;39.40
484;DHT22;228;48.922;12.198;2023-03-01T10:27:54;9.80;38.70
484;DHT22;228;48.922;12.198;2023-03-01T10:30:40;9.70;38.80
484;DHT22;228;48.922;12.198;2023-03-01T10:33:55;9.90;38.10
484;DHT22;228;48.922;12.198;2023-03-01T10:36:23;9.70;38.60
484;DHT22;228;48.922;12.198;2023-03-01T10:38:56;9.70;38.50
484;DHT22;228;48.922;12.198;2023-03-01T10:41:25;9.20;41.40
484;DHT22;228;48.922;12.198;2023-03-01T10:43:55;9.30;40.60
484;DHT22;228;48.922;12.198;2023-03-01T10:46:27;9.10;39.70
484;DHT22;228;48.922;12.198;2023-03-01T10:49:21;9.00;40.60
484;DHT22;228;48.922;12.198;2023-03-01T10:51:50;9.80;41.20
484;DHT22;228;48.922;12.198;2023-03-01T10:58:29;9.70;37.60
484;DHT22;228;48.922;12.198;2023-03-01T11:06:39;10.00;36.50
484;DHT22;228;48.922;12.198;2023-03-01T11:09:20;9.90;36.70
484;DHT22;228;48.922;12.198;2023-03-01T11:12:11;10.30;38.00
484;DHT22;228;48.922;12.198;2023-03-01T11:14:55;10.60;36.70
484;DHT22;228;48.922;12.198;2023-03-01T11:17:30;11.00;35.00
484;DHT22;228;48.922;12.198;2023-03-01T11:22:53;10.90;34.60
484;DHT22;228;48.922;12.198;2023-03-01T11:25:48;10.90;35.80
484;DHT22;228;48.922;12.198;2023-03-01T11:28:20;11.30;36.70
484;DHT22;228;48.922;12.198;2023-03-01T11:31:13;11.60;33.80
484;DHT22;228;48.922;12.198;2023-03-01T11:36:38;11.10;35.60
484;DHT22;228;48.922;12.198;2023-03-01T11:39:31;10.80;35.40
484;DHT22;228;48.922;12.198;2023-03-01T11:44:59;14.10;33.80
484;DHT22;228;48.922;12.198;2023-03-01T11:47:50;16.90;30.00
484;DHT22;228;48.922;12.198;2023-03-01T11:50:49;18.80;26.90
484;DHT22;228;48.922;12.198;2023-03-01T11:56:32;18.60;25.20
484;DHT22;228;48.922;12.198;2023-03-01T12:02:40;19.60;25.70
484;DHT22;228;48.922;12.198;2023-03-01T12:08:31;20.30;21.90
484;DHT22;228;48.922;12.198;2023-03-01T12:17:07;23.70;23.20
484;DHT22;228;48.922;12.198;2023-03-01T12:34:51;24.00;21.20
484;DHT22;228;48.922;12.198;2023-03-01T12:37:38;22.00;22.00
484;DHT22;228;48.922;12.198;2023-03-01T12:40:41;21.00;22.60
484;DHT22;228;48.922;12.198;2023-03-01T12:46:20;23.50;22.70
484;DHT22;228;48.922;12.198;2023-03-01T12:49:05;23.60;21.50
484;DHT22;228;48.922;12.198;2023-03-01T12:51:36;22.10;23.20
484;DHT22;228;48.922;12.198;2023-03-01T12:54:18;23.00;22.40
484;DHT22;228;48.922;12.198;2023-03-01T12:56:48;22.60;22.30
484;DHT22;228;48.922;12.198;2023-03-01T13:11:03;20.70;24.70
484;DHT22;228;48.922;12.198;2023-03-01T13:13:32;21.70;24.00
484;DHT22;228;48.922;12.198;2023-03-01T13:21:54;21.00;23.90
484;DHT22;228;48.922;12.198;2023-03-01T13:24:35;21.50;23.50
484;DHT22;228;48.922;12.198;2023-03-01T13:32:27;22.30;23.00
484;DHT22;228;48.922;12.198;2023-03-01T13:37:52;22.30;23.80
484;DHT22;228;48.922;12.198;2023-03-01T13:42:53;21.00;23.90
484;DHT22;228;48.922;12.198;2023-03-01T13:45:38;20.40;24.90
484;DHT22;228;48.922;12.198;2023-03-01T13:48:22;19.50;26.20
484;DHT22;228;48.922;12.198;2023-03-01T13:50:57;18.80;27.40
484;DHT22;228;48.922;12.198;2023-03-01T13:53:32;20.00;25.40
484;DHT22;228;48.922;12.198;2023-03-01T13:56:19;20.20;25.50
484;DHT22;228;48.922;12.198;2023-03-01T13:58:58;19.40;26.50
484;DHT22;228;48.922;12.198;2023-03-01T14:01:34;20.10;25.40
484;DHT22;228;48.922;12.198;2023-03-01T14:04:03;20.30;25.00
484;DHT22;228;48.922;12.198;2023-03-01T14:06:32;19.90;26.10
484;DHT22;228;48.922;12.198;2023-03-01T14:09:08;19.50;25.70
484;DHT22;228;48.922;12.198;2023-03-01T14:15:34;17.70;27.70
484;DHT22;228;48.922;12.198;2023-03-01T14:18:21;17.80;28.40
484;DHT22;228;48.922;12.198;2023-03-01T14:20:51;19.90;26.70
484;DHT22;228;48.922;12.198;2023-03-01T14:23:23;20.40;25.80
484;DHT22;228;48.922;12.198;2023-03-01T14:25:51;19.80;25.90
484;DHT22;228;48.922;12.198;2023-03-01T14:28:32;18.90;26.50
484;DHT22;228;48.922;12.198;2023-03-01T14:31:00;19.00;26.80
484;DHT22;228;48.922;12.198;2023-03-01T14:33:37;18.30;28.00
484;DHT22;228;48.922;12.198;2023-03-01T14:36:10;18.00;28.40
484;DHT22;228;48.922;12.198;2023-03-01T14:38:47;17.70;28.80
484;DHT22;228;48.922;12.198;2023-03-01T14:46:34;16.20;30.90
484;DHT22;228;48.922;12.198;2023-03-01T14:49:12;17.20;30.00
484;DHT22;228;48.922;12.198;2023-03-01T14:51:46;17.50;29.60
484;DHT22;228;48.922;12.198;2023-03-01T14:54:25;18.40;27.80
484;DHT22;228;48.922;12.198;2023-03-01T14:56:57;18.60;28.20
484;DHT22;228;48.922;12.198;2023-03-01T14:59:25;18.80;28.20
484;DHT22;228;48.922;12.198;2023-03-01T15:01:54;18.90;28.20
484;DHT22;228;48.922;12.198;2023-03-01T15:04:22;18.60;27.90
484;DHT22;228;48.922;12.198;2023-03-01T15:06:56;18.60;28.40
484;DHT22;228;48.922;12.198;2023-03-01T15:09:32;18.60;28.10
484;DHT22;228;48.922;12.198;2023-03-01T15:11:59;18.80;27.90
484;DHT22;228;48.922;12.198;2023-03-01T15:14:42;18.10;28.60
484;DHT22;228;48.922;12.198;2023-03-01T15:17:33;17.70;29.20
484;DHT22;228;48.922;12.198;2023-03-01T15:20:04;17.10;29.80
484;DHT22;228;48.922;12.198;2023-03-01T15:22:32;16.30;30.80
484;DHT22;228;48.922;12.198;2023-03-01T15:24:59;16.60;31.10
484;DHT22;228;48.922;12.198;2023-03-01T15:27:28;15.80;31.50
484;DHT22;228;48.922;12.198;2023-03-01T15:29:59;15.90;32.10
484;DHT22;228;48.922;12.198;2023-03-01T15:32:35;15.70;32.80
484;DHT22;228;48.922;12.198;2023-03-01T15:35:38;16.60;31.70
484;DHT22;228;48.922;12.198;2023-03-01T15:38:27;16.30;31.70
484;DHT22;228;48.922;12.198;2023-03-01T15:40:55;16.00;32.00
484;DHT22;228;48.922;12.198;2023-03-01T15:43:46;15.90;32.90
484;DHT22;228;48.922;12.198;2023-03-01T15:46:50;15.10;33.50
484;DHT22;228;48.922;12.198;2023-03-01T15:49:47;14.20;35.60
484;DHT22;228;48.922;12.198;2023-03-01T15:52:25;12.60;38.90
484;DHT22;228;48.922;12.198;2023-03-01T15:55:03;11.70;41.10
484;DHT22;228;48.922;12.198;2023-03-01T15:57:43;11.00;43.00
484;DHT22;228;48.922;12.198;2023-03-01T16:00:11;10.80;43.20
484;DHT22;228;48.922;12.198;2023-03-01T16:02:42;10.80;43.80
484;DHT22;228;48.922;12.198;2023-03-01T16:05:31;10.90;43.40
484;DHT22;228;48.922;12.198;2023-03-01T16:07:58;10.70;44.00
484;DHT22;228;48.922;12.198;2023-03-01T16:10:24;10.60;44.30
484;DHT22;228;48.922;12.198;2023-03-01T16:12:51;10.80;43.90
484;DHT22;228;48.922;12.198;2023-03-01T16:15:20;10.50;44.30
484;DHT22;228;48.922;12.198;2023-03-01T16:17:55;9.80;47.00
484;DHT22;228;48.922;12.198;2023-03-01T16:20:22;9.50;47.50
484;DHT22;228;48.922;12.198;2023-03-01T16:22:48;9.00;48.90
484;DHT22;228;48.922;12.198;2023-03-01T16:25:17;8.40;50.20
484;DHT22;228;48.922;12.198;2023-03-01T16:27:46;8.20;51.40
484;DHT22;228;48.922;12.198;2023-03-01T16:30:15;8.00;52.00
484;DHT22;228;48.922;12.198;2023-03-01T16:32:44;7.80;52.50
484;DHT22;228;48.922;12.198;2023-03-01T16:35:12;7.70;52.70
484;DHT22;228;48.922;12.198;2023-03-01T16:37:39;7.90;52.70
484;DHT22;228;48.922;12.198;2023-03-01T16:42:47;7.50;53.90
484;DHT22;228;48.922;12.198;2023-03-01T16:45:14;7.30;54.20
484;DHT22;228;48.922;12.198;2023-03-01T16:47:40;7.30;54.40
484;DHT22;228;48.922;12.198;2023-03-01T16:50:06;7.40;53.70
484;DHT22;228;48.922;12.198;2023-03-01T16:52:33;7.50;53.90
484;DHT22;228;48.922;12.198;2023-03-01T16:54:59;7.60;53.90
484;DHT22;228;48.922;12.198;2023-03-01T16:57:25;7.40;54.00
484;DHT22;228;48.922;12.198;2023-03-01T16:59:52;7.00;54.60
484;DHT22;228;48.922;12.198;2023-03-01T17:02:21;6.80;55.60
484;DHT22;228;48.922;12.198;2023-03-01T17:04:54;6.80;55.70
484;DHT22;228;48.922;12.198;2023-03-01T17:07:21;6.60;56.30
484;DHT22;228;48.922;12.198;2023-03-01T17:09:48;6.50;57.60
484;DHT22;228;48.922;12.198;2023-03-01T17:12:15;6.40;57.00
484;DHT22;228;48.922;12.198;2023-03-01T17:14:41;6.40;57.00
484;DHT22;228;48.922;12.198;2023-03-01T17:17:08;6.40;57.10
484;DHT22;228;48.922;12.198;2023-03-01T17:19:35;6.40;57.60
484;DHT22;228;48.922;12.198;2023-03-01T17:22:06;6.10;58.10
484;DHT22;228;48.922;12.198;2023-03-01T17:24:36;6.10;58.10
484;DHT22;228;48.922;12.198;2023-03-01T17:27:03;6.20;58.30
484;DHT22;228;48.922;12.198;2023-03-01T17:29:30;6.40;57.80
484;DHT22;228;48.922;12.198;2023-03-01T17:31:56;6.40;57.50
484;DHT22;228;48.922;12.198;2023-03-01T17:34:23;6.30;57.80
484;DHT22;228;48.922;12.198;2023-03-01T17:36:50;6.40;57.90
484;DHT22;228;48.922;12.198;2023-03-01T17:39:18;6.50;57.50
484;DHT22;228;48.922;12.198;2023-03-01T17:41:54;6.40;57.40
484;DHT22;228;48.922;12.198;2023-03-01T17:44:23;6.20;58.00
484;DHT22;228;48.922;12.198;2023-03-01T17:46:49;6.20;57.90
484;DHT22;228;48.922;12.198;2023-03-01T17:49:15;6.20;58.20
484;DHT22;228;48.922;12.198;2023-03-01T17:51:42;6.50;57.90
484;DHT22;228;48.922;12.198;2023-03-01T17:54:09;6.40;57.70
484;DHT22;228;48.922;12.198;2023-03-01T17:56:35;6.40;57.60
484;DHT22;228;48.922;12.198;2023-03-01T17:59:04;6.60;57.80
484;DHT22;228;48.922;12.198;2023-03-01T18:01:31;6.40;57.70
484;DHT22;228;48.922;12.198;2023-03-01T18:03:58;6.40;57.70
484;DHT22;228;48.922;12.198;2023-03-01T18:06:32;6.30;57.30
484;DHT22;228;48.922;12.198;2023-03-01T18:09:09;6.10;58.20
484;DHT22;228;48.922;12.198;2023-03-01T18:11:36;6.00;58.60
484;DHT22;228;48.922;12.198;2023-03-01T18:14:03;5.70;58.90
484;DHT22;228;48.922;12.198;2023-03-01T18:16:29;6.10;59.10
484;DHT22;228;48.922;12.198;2023-03-01T18:18:56;6.20;58.60
484;DHT22;228;48.922;12.198;2023-03-01T18:21:23;6.60;57.60
484;DHT22;228;48.922;12.198;2023-03-01T18:23:57;6.50;57.20
484;DHT22;228;48.922;12.198;2023-03-01T18:26:43;6.40;57.80
484;DHT22;228;48.922;12.198;2023-03-01T18:29:09;6.60;57.50
484;DHT22;228;48.922;12.198;2023-03-01T18:31:35;6.60;57.20
484;DHT22;228;48.922;12.198;2023-03-01T18:34:01;6.70;56.80
484;DHT22;228;48.922;12.198;2023-03-01T18:36:31;6.60;57.00
484;DHT22;228;48.922;12.198;2023-03-01T18:38:58;6.40;57.60
484;DHT22;228;48.922;12.198;2023-03-01T18:41:29;6.40;57.70
484;DHT22;228;48.922;12.198;2023-03-01T18:44:02;6.30;57.90
484;DHT22;228;48.922;12.198;2023-03-01T18:46:30;6.30;57.90
484;DHT22;228;48.922;12.198;2023-03-01T18:48:57;6.20;58.10
484;DHT22;228;48.922;12.198;2023-03-01T18:51:26;6.00;58.50
484;DHT22;228;48.922;12.198;2023-03-01T18:53:55;5.90;59.10
484;DHT22;228;48.922;12.198;2023-03-01T18:56:28;6.10;59.00
484;DHT22;228;48.922;12.198;2023-03-01T18:58:56;6.00;59.10
484;DHT22;228;48.922;12.198;2023-03-01T19:01:25;6.00;59.20
484;DHT22;228;48.922;12.198;2023-03-01T19:03:53;5.90;59.30
484;DHT22;228;48.922;12.198;2023-03-01T19:06:22;6.10;59.40
484;DHT22;228;48.922;12.198;2023-03-01T19:08:54;6.20;58.50
484;DHT22;228;48.922;12.198;2023-03-01T19:11:24;6.40;57.80